sensor_id;sensor_type;location;lat;lon;timestamp;P1;durP1;ratioP1;P2;durP2;ratioP2
16735;SDS011;17990;49.548;9.730;2022-08-19T00:00:47;18.27;;;15.35;;
16735;SDS011;17990;49.548;9.730;2022-08-19T00:03:15;17.38;;;15.18;;
16735;SDS011;17990;49.548;9.730;2022-08-19T00:05:43;17.20;;;15.23;;
16735;SDS011;17990;49.548;9.730;2022-08-19T00:08:10;19.33;;;16.23;;
16735;SDS011;17990;49.548;9.730;2022-08-19T00:10:37;21.15;;;16.08;;
16735;SDS011;17990;49.548;9.730;2022-08-19T00:13:04;18.45;;;16.15;;
16735;SDS011;17990;49.548;9.730;2022-08-19T00:15:31;18.83;;;16.13;;
16735;SDS011;17990;49.548;9.730;2022-08-19T00:17:57;21.02;;;16.13;;
16735;SDS011;17990;49.548;9.730;2022-08-19T00:20:24;18.77;;;16.10;;
16735;SDS011;17990;49.548;9.730;2022-08-19T00:22:53;19.03;;;16.43;;
16735;SDS011;17990;49.548;9.730;2022-08-19T00:25:20;18.87;;;16.57;;
16735;SDS011;17990;49.548;9.730;2022-08-19T00:27:47;18.73;;;16.73;;
16735;SDS011;17990;49.548;9.730;2022-08-19T00:30:14;19.43;;;16.50;;
16735;SDS011;17990;49.548;9.730;2022-08-19T00:32:41;19.07;;;16.37;;
16735;SDS011;17990;49.548;9.730;2022-08-19T00:35:08;22.10;;;16.30;;
16735;SDS011;17990;49.548;9.730;2022-08-19T00:37:35;20.43;;;17.13;;
16735;SDS011;17990;49.548;9.730;2022-08-19T00:40:05;18.43;;;16.43;;
16735;SDS011;17990;49.548;9.730;2022-08-19T00:42:33;19.50;;;17.17;;
16735;SDS011;17990;49.548;9.730;2022-08-19T00:45:01;21.73;;;17.23;;
16735;SDS011;17990;49.548;9.730;2022-08-19T00:47:28;22.83;;;17.77;;
16735;SDS011;17990;49.548;9.730;2022-08-19T00:49:56;20.17;;;17.70;;
16735;SDS011;17990;49.548;9.730;2022-08-19T00:52:25;20.97;;;16.67;;
16735;SDS011;17990;49.548;9.730;2022-08-19T00:54:55;22.73;;;18.07;;
16735;SDS011;17990;49.548;9.730;2022-08-19T00:57:25;18.83;;;16.60;;
16735;SDS011;17990;49.548;9.730;2022-08-19T00:59:55;20.20;;;16.43;;
16735;SDS011;17990;49.548;9.730;2022-08-19T01:02:24;19.90;;;16.30;;
16735;SDS011;17990;49.548;9.730;2022-08-19T01:04:52;18.23;;;15.70;;
16735;SDS011;17990;49.548;9.730;2022-08-19T01:07:18;19.57;;;16.47;;
16735;SDS011;17990;49.548;9.730;2022-08-19T01:09:45;20.37;;;16.97;;
16735;SDS011;17990;49.548;9.730;2022-08-19T01:12:12;20.93;;;17.77;;
16735;SDS011;17990;49.548;9.730;2022-08-19T01:14:41;20.20;;;16.67;;
16735;SDS011;17990;49.548;9.730;2022-08-19T01:17:08;20.60;;;16.17;;
16735;SDS011;17990;49.548;9.730;2022-08-19T01:19:37;20.93;;;16.90;;
16735;SDS011;17990;49.548;9.730;2022-08-19T01:22:08;20.03;;;16.20;;
16735;SDS011;17990;49.548;9.730;2022-08-19T01:24:41;20.37;;;17.10;;
16735;SDS011;17990;49.548;9.730;2022-08-19T01:27:08;19.03;;;16.40;;
16735;SDS011;17990;49.548;9.730;2022-08-19T01:29:36;20.33;;;16.50;;
16735;SDS011;17990;49.548;9.730;2022-08-19T01:32:04;19.73;;;16.20;;
16735;SDS011;17990;49.548;9.730;2022-08-19T01:34:32;20.73;;;16.20;;
16735;SDS011;17990;49.548;9.730;2022-08-19T01:36:59;18.13;;;15.27;;
16735;SDS011;17990;49.548;9.730;2022-08-19T01:39:27;18.20;;;15.73;;
16735;SDS011;17990;49.548;9.730;2022-08-19T01:41:55;18.37;;;16.10;;
16735;SDS011;17990;49.548;9.730;2022-08-19T01:44:22;21.10;;;16.53;;
16735;SDS011;17990;49.548;9.730;2022-08-19T01:46:50;18.00;;;15.47;;
16735;SDS011;17990;49.548;9.730;2022-08-19T01:49:19;19.53;;;15.40;;
16735;SDS011;17990;49.548;9.730;2022-08-19T01:51:47;17.90;;;15.20;;
16735;SDS011;17990;49.548;9.730;2022-08-19T01:54:14;19.30;;;15.17;;
16735;SDS011;17990;49.548;9.730;2022-08-19T01:56:43;16.80;;;14.80;;
16735;SDS011;17990;49.548;9.730;2022-08-19T01:59:12;16.70;;;14.83;;
16735;SDS011;17990;49.548;9.730;2022-08-19T02:01:41;19.43;;;15.87;;
16735;SDS011;17990;49.548;9.730;2022-08-19T02:04:08;18.80;;;15.37;;
16735;SDS011;17990;49.548;9.730;2022-08-19T02:06:35;19.80;;;14.77;;
16735;SDS011;17990;49.548;9.730;2022-08-19T02:09:02;18.40;;;15.30;;
16735;SDS011;17990;49.548;9.730;2022-08-19T02:11:31;18.93;;;15.03;;
16735;SDS011;17990;49.548;9.730;2022-08-19T02:14:00;16.27;;;14.53;;
16735;SDS011;17990;49.548;9.730;2022-08-19T02:16:30;18.07;;;14.67;;
16735;SDS011;17990;49.548;9.730;2022-08-19T02:18:57;16.73;;;14.90;;
16735;SDS011;17990;49.548;9.730;2022-08-19T02:21:25;18.33;;;15.03;;
16735;SDS011;17990;49.548;9.730;2022-08-19T02:23:52;15.33;;;13.73;;
16735;SDS011;17990;49.548;9.730;2022-08-19T02:26:20;16.30;;;14.30;;
16735;SDS011;17990;49.548;9.730;2022-08-19T02:28:48;17.80;;;14.93;;
16735;SDS011;17990;49.548;9.730;2022-08-19T02:31:16;15.87;;;14.10;;
16735;SDS011;17990;49.548;9.730;2022-08-19T02:33:46;17.93;;;14.47;;
16735;SDS011;17990;49.548;9.730;2022-08-19T02:36:14;17.63;;;14.40;;
16735;SDS011;17990;49.548;9.730;2022-08-19T02:38:42;16.37;;;14.53;;
16735;SDS011;17990;49.548;9.730;2022-08-19T02:41:11;19.03;;;14.80;;
16735;SDS011;17990;49.548;9.730;2022-08-19T02:43:43;16.17;;;14.47;;
16735;SDS011;17990;49.548;9.730;2022-08-19T02:46:14;16.53;;;14.73;;
16735;SDS011;17990;49.548;9.730;2022-08-19T02:48:47;16.63;;;14.23;;
16735;SDS011;17990;49.548;9.730;2022-08-19T02:51:18;19.43;;;14.90;;
16735;SDS011;17990;49.548;9.730;2022-08-19T02:53:46;18.67;;;14.33;;
16735;SDS011;17990;49.548;9.730;2022-08-19T02:56:13;16.57;;;14.33;;
16735;SDS011;17990;49.548;9.730;2022-08-19T02:58:40;16.00;;;13.83;;
16735;SDS011;17990;49.548;9.730;2022-08-19T03:01:08;16.00;;;13.67;;
16735;SDS011;17990;49.548;9.730;2022-08-19T03:03:37;16.63;;;14.03;;
16735;SDS011;17990;49.548;9.730;2022-08-19T03:06:06;18.63;;;14.20;;
16735;SDS011;17990;49.548;9.730;2022-08-19T03:08:35;15.70;;;13.97;;
16735;SDS011;17990;49.548;9.730;2022-08-19T03:11:03;17.97;;;14.57;;
16735;SDS011;17990;49.548;9.730;2022-08-19T03:13:30;18.83;;;14.87;;
16735;SDS011;17990;49.548;9.730;2022-08-19T03:15:57;15.67;;;14.07;;
16735;SDS011;17990;49.548;9.730;2022-08-19T03:18:24;19.63;;;15.10;;
16735;SDS011;17990;49.548;9.730;2022-08-19T03:20:51;15.67;;;13.87;;
16735;SDS011;17990;49.548;9.730;2022-08-19T03:23:21;16.50;;;14.70;;
16735;SDS011;17990;49.548;9.730;2022-08-19T03:25:49;16.93;;;13.57;;
16735;SDS011;17990;49.548;9.730;2022-08-19T03:28:18;17.10;;;14.77;;
16735;SDS011;17990;49.548;9.730;2022-08-19T03:30:54;19.57;;;15.80;;
16735;SDS011;17990;49.548;9.730;2022-08-19T03:33:23;16.63;;;14.20;;
16735;SDS011;17990;49.548;9.730;2022-08-19T03:38:31;19.47;;;14.73;;
16735;SDS011;17990;49.548;9.730;2022-08-19T03:41:02;20.63;;;14.57;;
16735;SDS011;17990;49.548;9.730;2022-08-19T03:43:31;19.13;;;15.03;;
16735;SDS011;17990;49.548;9.730;2022-08-19T03:45:59;17.67;;;14.27;;
16735;SDS011;17990;49.548;9.730;2022-08-19T03:48:29;16.20;;;14.33;;
16735;SDS011;17990;49.548;9.730;2022-08-19T03:50:56;17.93;;;14.50;;
16735;SDS011;17990;49.548;9.730;2022-08-19T03:53:24;17.87;;;14.33;;
16735;SDS011;17990;49.548;9.730;2022-08-19T03:55:53;16.50;;;14.30;;
16735;SDS011;17990;49.548;9.730;2022-08-19T03:58:21;15.53;;;12.80;;
16735;SDS011;17990;49.548;9.730;2022-08-19T04:00:48;16.53;;;14.23;;
16735;SDS011;17990;49.548;9.730;2022-08-19T04:03:15;15.97;;;13.90;;
16735;SDS011;17990;49.548;9.730;2022-08-19T04:05:43;16.87;;;15.03;;
16735;SDS011;17990;49.548;9.730;2022-08-19T04:08:10;17.03;;;15.17;;
16735;SDS011;17990;49.548;9.730;2022-08-19T04:10:37;17.70;;;15.10;;
16735;SDS011;17990;49.548;9.730;2022-08-19T04:13:06;17.53;;;15.00;;
16735;SDS011;17990;49.548;9.730;2022-08-19T04:15:38;18.47;;;14.23;;
16735;SDS011;17990;49.548;9.730;2022-08-19T04:18:06;19.23;;;14.53;;
16735;SDS011;17990;49.548;9.730;2022-08-19T04:20:37;26.80;;;14.50;;
16735;SDS011;17990;49.548;9.730;2022-08-19T04:23:06;17.40;;;14.20;;
16735;SDS011;17990;49.548;9.730;2022-08-19T04:25:35;26.00;;;15.03;;
16735;SDS011;17990;49.548;9.730;2022-08-19T04:28:03;20.00;;;14.60;;
16735;SDS011;17990;49.548;9.730;2022-08-19T04:30:31;18.27;;;14.10;;
16735;SDS011;17990;49.548;9.730;2022-08-19T04:33:04;18.13;;;13.73;;
16735;SDS011;17990;49.548;9.730;2022-08-19T04:35:34;19.17;;;14.57;;
16735;SDS011;17990;49.548;9.730;2022-08-19T04:38:02;18.57;;;15.67;;
16735;SDS011;17990;49.548;9.730;2022-08-19T04:40:29;16.93;;;14.63;;
16735;SDS011;17990;49.548;9.730;2022-08-19T04:43:13;16.50;;;14.73;;
16735;SDS011;17990;49.548;9.730;2022-08-19T04:45:41;16.40;;;14.20;;
16735;SDS011;17990;49.548;9.730;2022-08-19T04:48:08;19.73;;;14.43;;
16735;SDS011;17990;49.548;9.730;2022-08-19T04:50:35;16.57;;;14.10;;
16735;SDS011;17990;49.548;9.730;2022-08-19T04:53:06;15.77;;;13.43;;
16735;SDS011;17990;49.548;9.730;2022-08-19T04:55:33;21.63;;;14.07;;
16735;SDS011;17990;49.548;9.730;2022-08-19T04:58:00;19.67;;;13.97;;
16735;SDS011;17990;49.548;9.730;2022-08-19T05:00:27;18.63;;;14.27;;
16735;SDS011;17990;49.548;9.730;2022-08-19T05:02:55;20.97;;;14.77;;
16735;SDS011;17990;49.548;9.730;2022-08-19T05:05:22;19.23;;;14.77;;
16735;SDS011;17990;49.548;9.730;2022-08-19T05:07:49;18.13;;;14.77;;
16735;SDS011;17990;49.548;9.730;2022-08-19T05:10:16;17.83;;;14.77;;
16735;SDS011;17990;49.548;9.730;2022-08-19T05:12:43;22.93;;;14.80;;
16735;SDS011;17990;49.548;9.730;2022-08-19T05:15:09;18.33;;;15.30;;
16735;SDS011;17990;49.548;9.730;2022-08-19T05:17:36;15.10;;;13.07;;
16735;SDS011;17990;49.548;9.730;2022-08-19T05:20:24;21.70;;;14.37;;
16735;SDS011;17990;49.548;9.730;2022-08-19T05:23:09;24.47;;;14.93;;
16735;SDS011;17990;49.548;9.730;2022-08-19T05:25:39;22.13;;;14.93;;
16735;SDS011;17990;49.548;9.730;2022-08-19T05:28:06;18.87;;;14.17;;
16735;SDS011;17990;49.548;9.730;2022-08-19T05:30:33;24.10;;;14.17;;
16735;SDS011;17990;49.548;9.730;2022-08-19T05:33:00;18.20;;;13.70;;
16735;SDS011;17990;49.548;9.730;2022-08-19T05:35:28;18.60;;;14.20;;
16735;SDS011;17990;49.548;9.730;2022-08-19T05:37:55;18.03;;;14.07;;
16735;SDS011;17990;49.548;9.730;2022-08-19T05:40:21;19.53;;;13.83;;
16735;SDS011;17990;49.548;9.730;2022-08-19T05:42:48;20.13;;;14.43;;
16735;SDS011;17990;49.548;9.730;2022-08-19T05:45:15;15.83;;;14.20;;
16735;SDS011;17990;49.548;9.730;2022-08-19T05:47:42;16.87;;;14.07;;
16735;SDS011;17990;49.548;9.730;2022-08-19T05:50:10;18.10;;;14.70;;
16735;SDS011;17990;49.548;9.730;2022-08-19T05:52:38;15.47;;;13.40;;
16735;SDS011;17990;49.548;9.730;2022-08-19T05:55:05;17.43;;;13.77;;
16735;SDS011;17990;49.548;9.730;2022-08-19T05:57:33;18.90;;;14.40;;
16735;SDS011;17990;49.548;9.730;2022-08-19T05:59:59;15.30;;;13.67;;
16735;SDS011;17990;49.548;9.730;2022-08-19T06:02:32;15.67;;;13.77;;
16735;SDS011;17990;49.548;9.730;2022-08-19T06:05:00;18.07;;;14.37;;
16735;SDS011;17990;49.548;9.730;2022-08-19T06:07:27;19.47;;;14.13;;
16735;SDS011;17990;49.548;9.730;2022-08-19T06:09:55;14.27;;;12.68;;
16735;SDS011;17990;49.548;9.730;2022-08-19T06:12:22;15.88;;;12.80;;
16735;SDS011;17990;49.548;9.730;2022-08-19T06:14:55;20.27;;;14.33;;
16735;SDS011;17990;49.548;9.730;2022-08-19T06:17:22;20.73;;;13.23;;
16735;SDS011;17990;49.548;9.730;2022-08-19T06:19:50;15.00;;;13.40;;
16735;SDS011;17990;49.548;9.730;2022-08-19T06:22:17;17.53;;;13.57;;
16735;SDS011;17990;49.548;9.730;2022-08-19T06:24:44;16.33;;;13.53;;
16735;SDS011;17990;49.548;9.730;2022-08-19T06:27:12;19.90;;;13.37;;
16735;SDS011;17990;49.548;9.730;2022-08-19T06:29:39;17.00;;;13.73;;
16735;SDS011;17990;49.548;9.730;2022-08-19T06:32:07;18.08;;;14.07;;
16735;SDS011;17990;49.548;9.730;2022-08-19T06:34:34;17.63;;;14.13;;
16735;SDS011;17990;49.548;9.730;2022-08-19T06:37:01;14.83;;;12.20;;
16735;SDS011;17990;49.548;9.730;2022-08-19T06:39:29;15.67;;;13.13;;
16735;SDS011;17990;49.548;9.730;2022-08-19T06:41:58;15.02;;;12.77;;
16735;SDS011;17990;49.548;9.730;2022-08-19T06:44:30;17.38;;;12.93;;
16735;SDS011;17990;49.548;9.730;2022-08-19T06:46:59;15.23;;;13.27;;
16735;SDS011;17990;49.548;9.730;2022-08-19T06:49:27;14.25;;;12.75;;
16735;SDS011;17990;49.548;9.730;2022-08-19T06:51:55;13.98;;;12.57;;
16735;SDS011;17990;49.548;9.730;2022-08-19T06:54:23;17.42;;;12.57;;
16735;SDS011;17990;49.548;9.730;2022-08-19T06:56:50;17.52;;;13.98;;
16735;SDS011;17990;49.548;9.730;2022-08-19T06:59:19;15.35;;;12.82;;
16735;SDS011;17990;49.548;9.730;2022-08-19T07:01:54;16.38;;;12.73;;
16735;SDS011;17990;49.548;9.730;2022-08-19T07:04:23;17.45;;;12.35;;
16735;SDS011;17990;49.548;9.730;2022-08-19T07:06:56;14.13;;;11.68;;
16735;SDS011;17990;49.548;9.730;2022-08-19T07:09:24;16.38;;;12.88;;
16735;SDS011;17990;49.548;9.730;2022-08-19T07:11:52;13.18;;;11.77;;
16735;SDS011;17990;49.548;9.730;2022-08-19T07:14:20;13.50;;;11.82;;
16735;SDS011;17990;49.548;9.730;2022-08-19T07:16:51;16.33;;;12.50;;
16735;SDS011;17990;49.548;9.730;2022-08-19T07:19:21;16.27;;;12.93;;
16735;SDS011;17990;49.548;9.730;2022-08-19T07:21:50;14.40;;;12.13;;
16735;SDS011;17990;49.548;9.730;2022-08-19T07:24:18;17.50;;;12.27;;
16735;SDS011;17990;49.548;9.730;2022-08-19T07:26:46;13.55;;;11.52;;
16735;SDS011;17990;49.548;9.730;2022-08-19T07:29:13;14.10;;;11.75;;
16735;SDS011;17990;49.548;9.730;2022-08-19T07:31:40;12.65;;;11.35;;
16735;SDS011;17990;49.548;9.730;2022-08-19T07:34:07;14.38;;;11.10;;
16735;SDS011;17990;49.548;9.730;2022-08-19T07:36:37;12.45;;;11.15;;
16735;SDS011;17990;49.548;9.730;2022-08-19T07:39:08;14.73;;;11.55;;
16735;SDS011;17990;49.548;9.730;2022-08-19T07:41:38;14.38;;;11.55;;
16735;SDS011;17990;49.548;9.730;2022-08-19T07:44:05;12.30;;;11.00;;
16735;SDS011;17990;49.548;9.730;2022-08-19T07:46:33;13.43;;;11.52;;
16735;SDS011;17990;49.548;9.730;2022-08-19T07:49:02;13.82;;;11.90;;
16735;SDS011;17990;49.548;9.730;2022-08-19T07:51:30;12.30;;;10.77;;
16735;SDS011;17990;49.548;9.730;2022-08-19T07:53:59;14.73;;;11.02;;
16735;SDS011;17990;49.548;9.730;2022-08-19T07:56:26;14.25;;;11.30;;
16735;SDS011;17990;49.548;9.730;2022-08-19T07:58:53;12.52;;;11.23;;
16735;SDS011;17990;49.548;9.730;2022-08-19T08:01:21;14.05;;;10.90;;
16735;SDS011;17990;49.548;9.730;2022-08-19T08:03:51;12.77;;;10.90;;
16735;SDS011;17990;49.548;9.730;2022-08-19T08:06:39;12.75;;;11.23;;
16735;SDS011;17990;49.548;9.730;2022-08-19T08:09:29;13.48;;;11.57;;
16735;SDS011;17990;49.548;9.730;2022-08-19T08:11:59;12.48;;;11.00;;
16735;SDS011;17990;49.548;9.730;2022-08-19T08:14:30;11.98;;;10.77;;
16735;SDS011;17990;49.548;9.730;2022-08-19T08:17:00;12.48;;;11.27;;
16735;SDS011;17990;49.548;9.730;2022-08-19T08:19:28;12.40;;;11.15;;
16735;SDS011;17990;49.548;9.730;2022-08-19T08:21:55;12.55;;;11.05;;
16735;SDS011;17990;49.548;9.730;2022-08-19T08:24:25;15.32;;;10.98;;
16735;SDS011;17990;49.548;9.730;2022-08-19T08:26:53;16.15;;;10.75;;
16735;SDS011;17990;49.548;9.730;2022-08-19T08:29:20;11.93;;;10.68;;
16735;SDS011;17990;49.548;9.730;2022-08-19T08:31:47;13.73;;;10.15;;
16735;SDS011;17990;49.548;9.730;2022-08-19T08:34:14;10.77;;;9.40;;
16735;SDS011;17990;49.548;9.730;2022-08-19T08:36:41;12.98;;;9.95;;
16735;SDS011;17990;49.548;9.730;2022-08-19T08:39:11;12.65;;;9.25;;
16735;SDS011;17990;49.548;9.730;2022-08-19T08:41:42;10.82;;;9.40;;
16735;SDS011;17990;49.548;9.730;2022-08-19T08:44:18;11.20;;;9.27;;
16735;SDS011;17990;49.548;9.730;2022-08-19T08:46:49;10.82;;;9.63;;
16735;SDS011;17990;49.548;9.730;2022-08-19T08:49:27;10.95;;;9.52;;
16735;SDS011;17990;49.548;9.730;2022-08-19T08:52:04;9.73;;;8.73;;
16735;SDS011;17990;49.548;9.730;2022-08-19T08:54:33;10.93;;;9.80;;
16735;SDS011;17990;49.548;9.730;2022-08-19T08:57:04;11.35;;;9.10;;
16735;SDS011;17990;49.548;9.730;2022-08-19T08:59:37;9.75;;;8.82;;
16735;SDS011;17990;49.548;9.730;2022-08-19T09:02:06;10.43;;;8.85;;
16735;SDS011;17990;49.548;9.730;2022-08-19T09:04:33;10.10;;;9.10;;
16735;SDS011;17990;49.548;9.730;2022-08-19T09:07:06;10.75;;;8.60;;
16735;SDS011;17990;49.548;9.730;2022-08-19T09:09:43;11.95;;;8.52;;
16735;SDS011;17990;49.548;9.730;2022-08-19T09:12:16;10.07;;;8.40;;
16735;SDS011;17990;49.548;9.730;2022-08-19T09:14:50;12.05;;;8.32;;
16735;SDS011;17990;49.548;9.730;2022-08-19T09:17:22;9.55;;;8.55;;
16735;SDS011;17990;49.548;9.730;2022-08-19T09:19:53;10.10;;;8.10;;
16735;SDS011;17990;49.548;9.730;2022-08-19T09:22:22;8.68;;;7.75;;
16735;SDS011;17990;49.548;9.730;2022-08-19T09:24:49;9.48;;;7.95;;
16735;SDS011;17990;49.548;9.730;2022-08-19T09:27:19;9.35;;;7.40;;
16735;SDS011;17990;49.548;9.730;2022-08-19T09:29:48;12.68;;;8.18;;
16735;SDS011;17990;49.548;9.730;2022-08-19T09:32:15;9.52;;;7.82;;
16735;SDS011;17990;49.548;9.730;2022-08-19T09:34:43;10.43;;;7.85;;
16735;SDS011;17990;49.548;9.730;2022-08-19T09:37:10;10.40;;;7.13;;
16735;SDS011;17990;49.548;9.730;2022-08-19T09:39:37;9.02;;;7.35;;
16735;SDS011;17990;49.548;9.730;2022-08-19T09:42:04;9.23;;;7.38;;
16735;SDS011;17990;49.548;9.730;2022-08-19T09:44:35;11.35;;;7.72;;
16735;SDS011;17990;49.548;9.730;2022-08-19T09:47:02;9.20;;;7.45;;
16735;SDS011;17990;49.548;9.730;2022-08-19T09:49:29;8.15;;;6.65;;
16735;SDS011;17990;49.548;9.730;2022-08-19T09:51:56;8.45;;;7.05;;
16735;SDS011;17990;49.548;9.730;2022-08-19T09:54:23;9.43;;;7.10;;
16735;SDS011;17990;49.548;9.730;2022-08-19T09:56:51;8.27;;;5.93;;
16735;SDS011;17990;49.548;9.730;2022-08-19T09:59:18;8.05;;;6.00;;
16735;SDS011;17990;49.548;9.730;2022-08-19T10:01:46;6.82;;;5.57;;
16735;SDS011;17990;49.548;9.730;2022-08-19T10:04:13;6.18;;;5.30;;
16735;SDS011;17990;49.548;9.730;2022-08-19T10:06:40;10.63;;;5.00;;
16735;SDS011;17990;49.548;9.730;2022-08-19T10:09:07;7.80;;;4.95;;
16735;SDS011;17990;49.548;9.730;2022-08-19T10:11:36;7.55;;;5.15;;
16735;SDS011;17990;49.548;9.730;2022-08-19T10:14:05;7.90;;;5.57;;
16735;SDS011;17990;49.548;9.730;2022-08-19T10:16:32;5.80;;;5.18;;
16735;SDS011;17990;49.548;9.730;2022-08-19T10:19:01;5.85;;;5.35;;
16735;SDS011;17990;49.548;9.730;2022-08-19T10:21:28;6.50;;;5.53;;
16735;SDS011;17990;49.548;9.730;2022-08-19T10:24:01;8.32;;;6.25;;
16735;SDS011;17990;49.548;9.730;2022-08-19T10:26:32;7.57;;;5.15;;
16735;SDS011;17990;49.548;9.730;2022-08-19T10:29:01;5.82;;;4.50;;
16735;SDS011;17990;49.548;9.730;2022-08-19T10:31:30;5.45;;;3.20;;
16735;SDS011;17990;49.548;9.730;2022-08-19T10:33:59;5.00;;;3.33;;
16735;SDS011;17990;49.548;9.730;2022-08-19T10:36:28;3.55;;;2.95;;
16735;SDS011;17990;49.548;9.730;2022-08-19T10:38:57;3.55;;;2.40;;
16735;SDS011;17990;49.548;9.730;2022-08-19T10:41:27;6.15;;;2.22;;
16735;SDS011;17990;49.548;9.730;2022-08-19T10:43:56;3.67;;;2.55;;
16735;SDS011;17990;49.548;9.730;2022-08-19T10:46:26;4.68;;;2.20;;
16735;SDS011;17990;49.548;9.730;2022-08-19T10:48:54;3.10;;;2.28;;
16735;SDS011;17990;49.548;9.730;2022-08-19T10:51:22;2.83;;;2.10;;
16735;SDS011;17990;49.548;9.730;2022-08-19T10:54:06;4.15;;;2.20;;
16735;SDS011;17990;49.548;9.730;2022-08-19T10:56:33;4.30;;;2.17;;
16735;SDS011;17990;49.548;9.730;2022-08-19T10:59:18;3.03;;;2.20;;
16735;SDS011;17990;49.548;9.730;2022-08-19T11:01:46;3.55;;;2.30;;
16735;SDS011;17990;49.548;9.730;2022-08-19T11:04:14;4.32;;;2.40;;
16735;SDS011;17990;49.548;9.730;2022-08-19T11:06:44;4.15;;;2.63;;
16735;SDS011;17990;49.548;9.730;2022-08-19T11:09:12;4.25;;;2.50;;
16735;SDS011;17990;49.548;9.730;2022-08-19T11:11:40;2.67;;;2.08;;
16735;SDS011;17990;49.548;9.730;2022-08-19T11:14:07;3.67;;;2.42;;
16735;SDS011;17990;49.548;9.730;2022-08-19T11:16:36;3.50;;;2.65;;
16735;SDS011;17990;49.548;9.730;2022-08-19T11:19:04;2.58;;;2.10;;
16735;SDS011;17990;49.548;9.730;2022-08-19T11:21:33;2.90;;;2.40;;
16735;SDS011;17990;49.548;9.730;2022-08-19T11:24:04;4.78;;;2.60;;
16735;SDS011;17990;49.548;9.730;2022-08-19T11:26:32;3.22;;;2.35;;
16735;SDS011;17990;49.548;9.730;2022-08-19T11:29:01;2.95;;;2.47;;
16735;SDS011;17990;49.548;9.730;2022-08-19T11:31:29;3.15;;;2.47;;
16735;SDS011;17990;49.548;9.730;2022-08-19T11:33:57;4.28;;;2.60;;
16735;SDS011;17990;49.548;9.730;2022-08-19T11:36:26;4.00;;;3.45;;
16735;SDS011;17990;49.548;9.730;2022-08-19T11:38:54;4.70;;;3.55;;
16735;SDS011;17990;49.548;9.730;2022-08-19T11:41:23;4.65;;;3.47;;
16735;SDS011;17990;49.548;9.730;2022-08-19T11:43:50;3.42;;;2.70;;
16735;SDS011;17990;49.548;9.730;2022-08-19T11:46:20;5.38;;;3.17;;
16735;SDS011;17990;49.548;9.730;2022-08-19T11:48:49;9.55;;;3.50;;
16735;SDS011;17990;49.548;9.730;2022-08-19T11:51:16;6.60;;;3.58;;
16735;SDS011;17990;49.548;9.730;2022-08-19T11:53:45;4.63;;;3.35;;
16735;SDS011;17990;49.548;9.730;2022-08-19T11:56:12;4.22;;;2.75;;
16735;SDS011;17990;49.548;9.730;2022-08-19T11:58:40;2.80;;;2.45;;
16735;SDS011;17990;49.548;9.730;2022-08-19T12:01:07;6.30;;;2.60;;
16735;SDS011;17990;49.548;9.730;2022-08-19T12:03:36;2.75;;;2.42;;
16735;SDS011;17990;49.548;9.730;2022-08-19T12:06:04;3.00;;;2.47;;
16735;SDS011;17990;49.548;9.730;2022-08-19T12:08:31;2.92;;;2.08;;
16735;SDS011;17990;49.548;9.730;2022-08-19T12:10:58;2.97;;;2.30;;
16735;SDS011;17990;49.548;9.730;2022-08-19T12:13:26;2.90;;;2.03;;
16735;SDS011;17990;49.548;9.730;2022-08-19T12:15:55;4.55;;;2.40;;
16735;SDS011;17990;49.548;9.730;2022-08-19T12:18:22;4.55;;;2.00;;
16735;SDS011;17990;49.548;9.730;2022-08-19T12:20:50;2.22;;;1.80;;
16735;SDS011;17990;49.548;9.730;2022-08-19T12:23:18;2.97;;;2.20;;
16735;SDS011;17990;49.548;9.730;2022-08-19T12:25:46;3.17;;;2.03;;
16735;SDS011;17990;49.548;9.730;2022-08-19T12:28:16;5.03;;;2.20;;
16735;SDS011;17990;49.548;9.730;2022-08-19T12:30:44;4.20;;;2.10;;
16735;SDS011;17990;49.548;9.730;2022-08-19T12:33:13;1.98;;;1.80;;
16735;SDS011;17990;49.548;9.730;2022-08-19T12:35:40;5.07;;;4.50;;
16735;SDS011;17990;49.548;9.730;2022-08-19T12:38:07;4.85;;;2.00;;
16735;SDS011;17990;49.548;9.730;2022-08-19T12:40:34;4.70;;;2.70;;
16735;SDS011;17990;49.548;9.730;2022-08-19T12:43:00;2.42;;;1.92;;
16735;SDS011;17990;49.548;9.730;2022-08-19T12:45:27;3.08;;;2.00;;
16735;SDS011;17990;49.548;9.730;2022-08-19T12:47:54;3.55;;;2.00;;
16735;SDS011;17990;49.548;9.730;2022-08-19T12:50:22;2.20;;;1.92;;
16735;SDS011;17990;49.548;9.730;2022-08-19T12:52:49;2.42;;;1.98;;
16735;SDS011;17990;49.548;9.730;2022-08-19T12:55:16;1.95;;;1.80;;
16735;SDS011;17990;49.548;9.730;2022-08-19T12:57:44;1.90;;;1.77;;
16735;SDS011;17990;49.548;9.730;2022-08-19T13:00:13;2.72;;;1.88;;
16735;SDS011;17990;49.548;9.730;2022-08-19T13:02:42;3.70;;;2.10;;
16735;SDS011;17990;49.548;9.730;2022-08-19T13:05:11;3.42;;;1.80;;
16735;SDS011;17990;49.548;9.730;2022-08-19T13:07:42;3.28;;;1.85;;
16735;SDS011;17990;49.548;9.730;2022-08-19T13:10:10;1.98;;;1.73;;
16735;SDS011;17990;49.548;9.730;2022-08-19T13:12:40;2.22;;;1.50;;
16735;SDS011;17990;49.548;9.730;2022-08-19T13:15:08;2.10;;;1.73;;
16735;SDS011;17990;49.548;9.730;2022-08-19T13:17:36;3.30;;;2.88;;
16735;SDS011;17990;49.548;9.730;2022-08-19T13:20:03;2.75;;;1.90;;
16735;SDS011;17990;49.548;9.730;2022-08-19T13:22:32;2.80;;;1.80;;
16735;SDS011;17990;49.548;9.730;2022-08-19T13:25:02;2.47;;;1.70;;
16735;SDS011;17990;49.548;9.730;2022-08-19T13:27:29;4.10;;;1.60;;
16735;SDS011;17990;49.548;9.730;2022-08-19T13:29:55;3.80;;;1.80;;
16735;SDS011;17990;49.548;9.730;2022-08-19T13:32:40;2.15;;;1.65;;
16735;SDS011;17990;49.548;9.730;2022-08-19T13:35:24;2.47;;;1.77;;
16735;SDS011;17990;49.548;9.730;2022-08-19T13:37:51;3.63;;;1.80;;
16735;SDS011;17990;49.548;9.730;2022-08-19T13:40:20;2.92;;;1.65;;
16735;SDS011;17990;49.548;9.730;2022-08-19T13:42:51;2.47;;;1.80;;
16735;SDS011;17990;49.548;9.730;2022-08-19T13:45:21;2.33;;;1.60;;
16735;SDS011;17990;49.548;9.730;2022-08-19T13:47:50;2.60;;;2.10;;
16735;SDS011;17990;49.548;9.730;2022-08-19T13:50:20;2.53;;;1.85;;
16735;SDS011;17990;49.548;9.730;2022-08-19T13:52:50;1.80;;;1.65;;
16735;SDS011;17990;49.548;9.730;2022-08-19T13:55:19;2.42;;;1.70;;
16735;SDS011;17990;49.548;9.730;2022-08-19T13:57:46;4.63;;;2.10;;
16735;SDS011;17990;49.548;9.730;2022-08-19T14:00:17;3.60;;;2.20;;
16735;SDS011;17990;49.548;9.730;2022-08-19T14:02:45;3.33;;;2.03;;
16735;SDS011;17990;49.548;9.730;2022-08-19T14:05:13;6.60;;;2.20;;
16735;SDS011;17990;49.548;9.730;2022-08-19T14:07:41;6.47;;;2.08;;
16735;SDS011;17990;49.548;9.730;2022-08-19T14:10:09;2.78;;;2.15;;
16735;SDS011;17990;49.548;9.730;2022-08-19T14:12:38;2.33;;;2.00;;
16735;SDS011;17990;49.548;9.730;2022-08-19T14:15:06;2.60;;;1.75;;
16735;SDS011;17990;49.548;9.730;2022-08-19T14:17:36;2.45;;;2.10;;
16735;SDS011;17990;49.548;9.730;2022-08-19T14:20:05;2.15;;;1.95;;
16735;SDS011;17990;49.548;9.730;2022-08-19T14:22:34;2.80;;;2.13;;
16735;SDS011;17990;49.548;9.730;2022-08-19T14:25:01;2.40;;;2.20;;
16735;SDS011;17990;49.548;9.730;2022-08-19T14:27:28;2.25;;;2.05;;
16735;SDS011;17990;49.548;9.730;2022-08-19T14:29:56;2.20;;;2.00;;
16735;SDS011;17990;49.548;9.730;2022-08-19T14:32:22;2.10;;;1.90;;
16735;SDS011;17990;49.548;9.730;2022-08-19T14:34:49;3.40;;;1.83;;
16735;SDS011;17990;49.548;9.730;2022-08-19T14:37:16;2.22;;;1.88;;
16735;SDS011;17990;49.548;9.730;2022-08-19T14:39:43;2.53;;;1.95;;
16735;SDS011;17990;49.548;9.730;2022-08-19T14:42:10;2.40;;;2.17;;